createdAt,value
2022-07-30T00:01:17.665Z,5.68
2022-07-30T00:06:20.937Z,5.78
2022-07-30T00:11:27.876Z,5.97
2022-07-30T00:16:31.748Z,5.90
2022-07-30T00:21:38.593Z,6.18
2022-07-30T00:26:44.414Z,6.63
2022-07-30T00:31:47.923Z,6.30
2022-07-30T00:36:53.527Z,6.15
2022-07-30T00:41:59.739Z,6.30
2022-07-30T00:47:03.615Z,6.32
2022-07-30T00:52:15.334Z,6.03
2022-07-30T00:57:20.828Z,6.32
2022-07-30T01:02:39.853Z,6.65
2022-07-30T01:07:45.828Z,6.28
2022-07-30T01:12:52.704Z,6.50
2022-07-30T01:18:07.162Z,6.88
2022-07-30T01:23:14.442Z,7.13
2022-07-30T01:28:21.371Z,6.65
2022-07-30T01:33:26.200Z,6.18
2022-07-30T01:38:35.186Z,6.47
2022-07-30T01:48:44.281Z,6.43
2022-07-30T01:53:47.957Z,6.32
2022-07-30T01:58:55.759Z,6.30
2022-07-30T02:04:05.252Z,6.13
2022-07-30T02:09:11.628Z,6.33
2022-07-30T02:14:20.887Z,6.82
2022-07-30T02:19:32.598Z,7.28
2022-07-30T02:24:36.615Z,7.30
2022-07-30T02:29:41.571Z,7.18
2022-07-30T02:34:51.335Z,6.93
2022-07-30T02:39:55.247Z,6.88
2022-07-30T02:45:01.455Z,6.97
2022-07-30T02:50:05.772Z,6.82
2022-07-30T02:55:10.173Z,6.93
2022-07-30T03:00:16.180Z,6.40
2022-07-30T03:05:23.201Z,6.75
2022-07-30T03:10:32.004Z,7.03
2022-07-30T03:15:39.185Z,7.45
2022-07-30T03:20:46.899Z,7.07
2022-07-30T03:25:57.565Z,7.20
2022-07-30T03:31:02.291Z,7.32
2022-07-30T03:36:07.424Z,7.07
2022-07-30T03:41:11.822Z,6.82
2022-07-30T03:46:19.505Z,6.32
2022-07-30T03:51:26.201Z,7.43
2022-07-30T03:56:39.014Z,7.82
2022-07-30T04:02:03.955Z,6.72
2022-07-30T04:07:41.446Z,7.40
2022-07-30T04:12:48.632Z,7.53
2022-07-30T04:18:01.074Z,7.22
2022-07-30T04:23:04.729Z,7.50
2022-07-30T04:28:10.037Z,6.78
2022-07-30T04:33:16.854Z,7.40
2022-07-30T04:38:53.326Z,7.72
2022-07-30T04:43:57.480Z,7.75
2022-07-30T04:49:04.013Z,7.07
2022-07-30T04:54:15.725Z,7.28
2022-07-30T04:59:19.940Z,6.90
2022-07-30T05:04:24.742Z,7.75
2022-07-30T05:09:29.662Z,6.75
2022-07-30T05:14:33.606Z,7.38
2022-07-30T05:19:38.634Z,7.22
2022-07-30T05:24:42.237Z,7.13
2022-07-30T05:29:45.735Z,7.50
2022-07-30T05:34:58.640Z,7.22
2022-07-30T05:45:57.955Z,7.50
2022-07-30T05:51:02.836Z,8.18
2022-07-30T05:56:06.956Z,8.38
2022-07-30T06:01:36.581Z,7.57
2022-07-30T06:06:50.505Z,7.38
2022-07-30T06:11:54.139Z,7.18
2022-07-30T06:17:01.558Z,6.38
2022-07-30T06:22:25.547Z,6.82
2022-07-30T06:27:36.639Z,6.70
2022-07-30T06:32:45.722Z,6.30
2022-07-30T06:38:04.999Z,5.75
2022-07-30T06:43:15.046Z,5.13
2022-07-30T06:48:52.193Z,5.57
2022-07-30T06:53:59.503Z,4.53
2022-07-30T06:59:21.536Z,4.25
2022-07-30T07:04:47.853Z,4.35
2022-07-30T07:09:53.584Z,4.10
2022-07-30T07:15:36.158Z,5.15
2022-07-30T07:20:43.508Z,4.30
2022-07-30T07:25:48.415Z,5.47
2022-07-30T07:30:51.956Z,5.28
2022-07-30T07:35:55.602Z,5.32
2022-07-30T07:41:05.974Z,4.53
2022-07-30T07:46:12.569Z,4.93
2022-07-30T07:51:15.836Z,5.25
2022-07-30T07:56:42.820Z,4.30
2022-07-30T08:01:49.979Z,5.57
2022-07-30T08:07:12.130Z,5.10
2022-07-30T08:12:52.639Z,5.18
2022-07-30T08:18:23.281Z,4.88
2022-07-30T08:23:47.952Z,4.78
2022-07-30T08:28:54.610Z,4.03
2022-07-30T08:39:04.823Z,5.05
2022-07-30T08:44:12.702Z,4.60
2022-07-30T08:49:17.223Z,4.00
2022-07-30T08:54:21.065Z,4.35
2022-07-30T08:59:26.363Z,4.22
2022-07-30T09:04:49.941Z,4.38
2022-07-30T09:09:54.838Z,3.33
2022-07-30T09:15:05.392Z,3.45
2022-07-30T09:20:11.748Z,2.90
2022-07-30T09:25:16.369Z,2.40
2022-07-30T09:30:48.675Z,1.80
2022-07-30T09:36:11.862Z,1.98
2022-07-30T09:41:43.953Z,2.00
2022-07-30T09:46:51.981Z,2.13
2022-07-30T09:52:03.726Z,1.75
2022-07-30T09:57:23.114Z,1.83
2022-07-30T10:02:34.379Z,1.77
2022-07-30T10:08:19.175Z,2.00
2022-07-30T10:18:46.506Z,1.73
2022-07-30T10:24:13.838Z,1.80
2022-07-30T10:29:42.688Z,1.60
2022-07-30T10:34:48.102Z,1.70
2022-07-30T10:39:53.987Z,1.85
2022-07-30T10:45:10.132Z,1.73
2022-07-30T10:50:29.096Z,1.58
2022-07-30T10:55:44.024Z,1.50
2022-07-30T11:01:05.510Z,1.30
2022-07-30T11:12:11.162Z,1.50
2022-07-30T11:17:19.954Z,1.10
2022-07-30T11:22:51.315Z,1.38
2022-07-30T11:27:55.107Z,1.23
2022-07-30T11:33:19.771Z,1.05
2022-07-30T11:38:27.267Z,1.20
2022-07-30T11:43:35.130Z,1.30
2022-07-30T11:48:41.252Z,1.15
2022-07-30T11:53:46.360Z,1.10
2022-07-30T11:58:50.171Z,0.98
2022-07-30T12:03:53.789Z,1.05
2022-07-30T12:08:59.253Z,1.08
2022-07-30T12:14:03.643Z,1.30
2022-07-30T12:19:10.164Z,1.55
2022-07-30T12:24:14.854Z,1.63
2022-07-30T12:29:18.367Z,1.50
2022-07-30T12:34:23.224Z,1.20
2022-07-30T12:39:29.812Z,1.13
2022-07-30T12:44:38.837Z,0.73
2022-07-30T12:49:48.925Z,0.80
2022-07-30T12:55:06.160Z,0.95
2022-07-30T13:00:10.189Z,1.02
2022-07-30T13:05:13.481Z,0.82
2022-07-30T13:10:21.334Z,0.80
2022-07-30T13:15:25.231Z,0.80
2022-07-30T13:20:28.864Z,0.70
2022-07-30T13:25:40.440Z,0.70
2022-07-30T13:30:45.866Z,0.50
2022-07-30T13:35:50.130Z,0.70
2022-07-30T13:41:02.230Z,0.80
2022-07-30T13:46:06.463Z,0.75
2022-07-30T13:51:10.179Z,0.80
2022-07-30T13:56:20.135Z,0.60
2022-07-30T14:01:24.511Z,0.60
2022-07-30T14:06:30.226Z,0.80
2022-07-30T14:11:35.015Z,0.60
2022-07-30T14:16:46.020Z,0.57
2022-07-30T14:21:52.214Z,0.70
2022-07-30T14:26:58.297Z,0.60
2022-07-30T14:32:01.914Z,0.73
2022-07-30T14:37:05.901Z,0.52
2022-07-30T14:42:14.389Z,0.70
2022-07-30T14:47:18.028Z,0.70
2022-07-30T14:52:21.680Z,0.70
2022-07-30T14:57:26.509Z,0.80
2022-07-30T15:02:41.135Z,0.77
2022-07-30T15:07:44.456Z,0.90
2022-07-30T15:12:49.452Z,0.80
2022-07-30T15:17:53.841Z,0.90
2022-07-30T15:22:57.630Z,0.93
2022-07-30T15:28:02.733Z,1.20
2022-07-30T15:33:10.852Z,1.02
2022-07-30T15:38:17.830Z,1.10
2022-07-30T15:43:22.593Z,1.00
2022-07-30T15:48:26.882Z,1.20
2022-07-30T15:53:31.476Z,1.10
2022-07-30T15:58:38.266Z,1.10
2022-07-30T16:03:54.766Z,1.38
2022-07-30T16:08:59.718Z,1.20
2022-07-30T16:14:04.538Z,1.40
2022-07-30T16:19:08.979Z,1.25
2022-07-30T16:24:12.538Z,1.25
2022-07-30T16:29:20.863Z,1.20
2022-07-30T16:34:26.449Z,1.30
2022-07-30T16:39:30.141Z,1.20
2022-07-30T16:44:35.838Z,1.40
2022-07-30T16:49:39.547Z,1.40
2022-07-30T16:54:42.994Z,1.40
2022-07-30T16:59:49.740Z,1.30
2022-07-30T17:04:53.683Z,1.40
2022-07-30T17:10:00.583Z,2.67
2022-07-30T17:15:13.364Z,2.50
2022-07-30T17:20:16.661Z,2.65
2022-07-30T17:25:23.385Z,2.20
2022-07-30T17:30:29.150Z,0.20
2022-07-30T17:35:32.247Z,0.00
2022-07-30T17:40:38.886Z,0.13
2022-07-30T17:45:43.992Z,0.08
2022-07-30T17:50:47.539Z,0.00
2022-07-30T17:55:57.390Z,0.00
2022-07-30T18:01:04.170Z,0.00
2022-07-30T18:06:09.297Z,0.00
2022-07-30T18:11:14.841Z,0.00
2022-07-30T18:16:19.896Z,0.00
2022-07-30T18:21:23.661Z,0.00
2022-07-30T18:26:27.951Z,0.00
2022-07-30T18:31:32.699Z,0.10
2022-07-30T18:36:38.822Z,0.17
2022-07-30T18:41:41.960Z,2.00
2022-07-30T18:46:49.689Z,2.63
2022-07-30T18:51:54.432Z,2.95
2022-07-30T18:57:00.101Z,3.00
2022-07-30T19:02:07.111Z,3.13
2022-07-30T19:07:10.547Z,2.88
2022-07-30T19:12:14.259Z,2.30
2022-07-30T19:17:18.904Z,3.00
2022-07-30T19:22:29.783Z,3.20
2022-07-30T19:27:33.694Z,3.00
2022-07-30T19:32:41.362Z,3.10
2022-07-30T19:37:45.011Z,3.50
2022-07-30T19:42:48.856Z,4.10
2022-07-30T19:47:58.715Z,2.97
2022-07-30T19:53:03.151Z,2.63
2022-07-30T19:58:16.104Z,2.78
2022-07-30T20:08:49.870Z,2.53
2022-07-30T20:14:05.127Z,2.95
2022-07-30T20:19:15.747Z,2.80
2022-07-30T20:25:37.992Z,2.70
2022-07-30T20:30:43.189Z,2.20
2022-07-30T20:35:46.551Z,2.25
2022-07-30T20:40:55.475Z,2.05
2022-07-30T20:45:59.433Z,1.90
2022-07-30T20:51:02.857Z,2.60
2022-07-30T20:56:09.064Z,2.30
2022-07-30T21:01:18.061Z,2.22
2022-07-30T21:06:22.650Z,2.20
2022-07-30T21:11:31.298Z,2.60
2022-07-30T21:16:41.155Z,2.30
2022-07-30T21:21:48.079Z,2.50
2022-07-30T21:26:54.387Z,2.93
2022-07-30T21:32:02.343Z,2.53
2022-07-30T21:37:07.811Z,2.53
2022-07-30T21:42:13.411Z,2.63
2022-07-30T21:47:16.885Z,2.42
2022-07-30T21:52:20.913Z,2.70
2022-07-30T21:57:30.269Z,3.90
2022-07-30T22:02:34.176Z,2.60
2022-07-30T22:07:37.924Z,2.50
2022-07-30T22:12:45.606Z,2.40
2022-07-30T22:18:00.537Z,3.03
2022-07-30T22:23:04.668Z,2.80
2022-07-30T22:28:09.212Z,2.50
2022-07-30T22:33:14.227Z,2.40
2022-07-30T22:38:19.506Z,2.50
2022-07-30T22:43:27.094Z,2.85
2022-07-30T22:48:42.022Z,2.80
2022-07-30T22:54:11.125Z,2.88
2022-07-30T22:59:10.545Z,2.78
2022-07-30T23:04:14.499Z,2.67
2022-07-30T23:09:18.693Z,2.53
2022-07-30T23:12:15.733Z,3.33
2022-07-30T23:14:24.074Z,2.60
2022-07-30T23:19:29.294Z,2.85
2022-07-30T23:24:35.535Z,2.90
2022-07-30T23:29:40.917Z,2.67
2022-07-30T23:34:47.610Z,2.60
2022-07-30T23:39:50.994Z,2.78
2022-07-30T23:44:55.927Z,2.60
2022-07-30T23:49:59.705Z,2.83
2022-07-30T23:55:03.035Z,2.83
